sensor_id;sensor_type;location;lat;lon;timestamp;P1;durP1;ratioP1;P2;durP2;ratioP2
76296;SDS011;65104;52.994;6.552;2023-03-24T00:01:46;9.82;;;4.95;;
76296;SDS011;65104;52.994;6.552;2023-03-24T00:04:11;7.85;;;4.35;;
76296;SDS011;65104;52.994;6.552;2023-03-24T00:06:38;7.50;;;3.72;;
76296;SDS011;65104;52.994;6.552;2023-03-24T00:09:03;7.72;;;4.10;;
76296;SDS011;65104;52.994;6.552;2023-03-24T00:11:29;8.13;;;4.85;;
76296;SDS011;65104;52.994;6.552;2023-03-24T00:13:54;6.50;;;3.88;;
76296;SDS011;65104;52.994;6.552;2023-03-24T00:16:22;8.10;;;3.92;;
76296;SDS011;65104;52.994;6.552;2023-03-24T00:18:49;7.38;;;4.32;;
76296;SDS011;65104;52.994;6.552;2023-03-24T00:21:17;8.40;;;4.35;;
76296;SDS011;65104;52.994;6.552;2023-03-24T00:23:45;7.63;;;3.75;;
76296;SDS011;65104;52.994;6.552;2023-03-24T00:26:11;9.40;;;4.13;;
76296;SDS011;65104;52.994;6.552;2023-03-24T00:28:44;6.80;;;3.63;;
76296;SDS011;65104;52.994;6.552;2023-03-24T00:31:12;9.98;;;3.90;;
76296;SDS011;65104;52.994;6.552;2023-03-24T00:33:39;10.60;;;4.32;;
76296;SDS011;65104;52.994;6.552;2023-03-24T00:36:06;9.18;;;4.20;;
76296;SDS011;65104;52.994;6.552;2023-03-24T00:38:35;8.23;;;3.83;;
76296;SDS011;65104;52.994;6.552;2023-03-24T00:41:02;6.75;;;3.33;;
76296;SDS011;65104;52.994;6.552;2023-03-24T00:46:29;9.05;;;3.95;;
76296;SDS011;65104;52.994;6.552;2023-03-24T00:49:04;8.02;;;3.83;;
76296;SDS011;65104;52.994;6.552;2023-03-24T00:51:40;8.50;;;3.63;;
76296;SDS011;65104;52.994;6.552;2023-03-24T00:54:07;7.25;;;4.20;;
76296;SDS011;65104;52.994;6.552;2023-03-24T00:56:35;8.38;;;3.92;;
76296;SDS011;65104;52.994;6.552;2023-03-24T00:59:04;7.85;;;3.88;;
76296;SDS011;65104;52.994;6.552;2023-03-24T01:01:31;6.78;;;3.58;;
76296;SDS011;65104;52.994;6.552;2023-03-24T01:03:59;6.80;;;3.80;;
76296;SDS011;65104;52.994;6.552;2023-03-24T01:06:26;8.40;;;3.95;;
76296;SDS011;65104;52.994;6.552;2023-03-24T01:08:52;7.28;;;4.20;;
76296;SDS011;65104;52.994;6.552;2023-03-24T01:11:21;8.40;;;4.88;;
76296;SDS011;65104;52.994;6.552;2023-03-24T01:13:50;5.15;;;3.53;;
76296;SDS011;65104;52.994;6.552;2023-03-24T01:16:17;8.30;;;4.60;;
76296;SDS011;65104;52.994;6.552;2023-03-24T01:18:43;6.97;;;4.30;;
76296;SDS011;65104;52.994;6.552;2023-03-24T01:21:09;6.90;;;3.50;;
76296;SDS011;65104;52.994;6.552;2023-03-24T01:23:37;8.90;;;3.63;;
76296;SDS011;65104;52.994;6.552;2023-03-24T01:26:04;7.22;;;4.63;;
76296;SDS011;65104;52.994;6.552;2023-03-24T01:28:32;7.63;;;3.92;;
76296;SDS011;65104;52.994;6.552;2023-03-24T01:30:59;6.07;;;3.95;;
76296;SDS011;65104;52.994;6.552;2023-03-24T01:33:25;6.65;;;4.07;;
76296;SDS011;65104;52.994;6.552;2023-03-24T01:35:51;7.13;;;4.07;;
76296;SDS011;65104;52.994;6.552;2023-03-24T01:38:16;5.93;;;4.15;;
76296;SDS011;65104;52.994;6.552;2023-03-24T01:40:43;5.63;;;3.20;;
76296;SDS011;65104;52.994;6.552;2023-03-24T01:43:22;6.63;;;4.38;;
76296;SDS011;65104;52.994;6.552;2023-03-24T01:45:59;6.15;;;3.92;;
76296;SDS011;65104;52.994;6.552;2023-03-24T01:56:55;7.10;;;3.28;;
76296;SDS011;65104;52.994;6.552;2023-03-24T01:59:31;7.07;;;3.72;;
76296;SDS011;65104;52.994;6.552;2023-03-24T02:02:00;4.88;;;3.90;;
76296;SDS011;65104;52.994;6.552;2023-03-24T02:06:55;6.88;;;3.53;;
76296;SDS011;65104;52.994;6.552;2023-03-24T02:09:23;7.35;;;3.63;;
76296;SDS011;65104;52.994;6.552;2023-03-24T02:11:48;7.07;;;3.13;;
76296;SDS011;65104;52.994;6.552;2023-03-24T02:14:13;6.75;;;3.40;;
76296;SDS011;65104;52.994;6.552;2023-03-24T02:24:25;5.95;;;3.60;;
76296;SDS011;65104;52.994;6.552;2023-03-24T02:38:50;7.30;;;4.07;;
76296;SDS011;65104;52.994;6.552;2023-03-24T02:59:15;5.63;;;3.38;;
76296;SDS011;65104;52.994;6.552;2023-03-24T03:01:53;6.47;;;3.17;;
76296;SDS011;65104;52.994;6.552;2023-03-24T03:04:27;7.97;;;4.00;;
76296;SDS011;65104;52.994;6.552;2023-03-24T03:06:57;5.45;;;3.08;;
76296;SDS011;65104;52.994;6.552;2023-03-24T03:09:26;5.22;;;3.25;;
76296;SDS011;65104;52.994;6.552;2023-03-24T03:11:55;5.13;;;3.78;;
76296;SDS011;65104;52.994;6.552;2023-03-24T03:14:28;3.75;;;3.25;;
76296;SDS011;65104;52.994;6.552;2023-03-24T03:17:01;4.82;;;3.38;;
76296;SDS011;65104;52.994;6.552;2023-03-24T03:19:33;5.22;;;3.22;;
76296;SDS011;65104;52.994;6.552;2023-03-24T03:22:07;3.72;;;3.25;;
76296;SDS011;65104;52.994;6.552;2023-03-24T03:24:40;4.90;;;3.72;;
76296;SDS011;65104;52.994;6.552;2023-03-24T03:27:15;6.55;;;3.75;;
76296;SDS011;65104;52.994;6.552;2023-03-24T03:29:44;5.07;;;3.60;;
76296;SDS011;65104;52.994;6.552;2023-03-24T03:32:29;4.95;;;3.92;;
76296;SDS011;65104;52.994;6.552;2023-03-24T03:35:15;3.38;;;2.60;;
76296;SDS011;65104;52.994;6.552;2023-03-24T03:43:15;4.70;;;2.85;;
76296;SDS011;65104;52.994;6.552;2023-03-24T03:45:41;3.28;;;2.97;;
76296;SDS011;65104;52.994;6.552;2023-03-24T03:48:06;2.60;;;2.20;;
76296;SDS011;65104;52.994;6.552;2023-03-24T03:50:32;2.90;;;1.98;;
76296;SDS011;65104;52.994;6.552;2023-03-24T03:52:58;3.40;;;1.92;;
76296;SDS011;65104;52.994;6.552;2023-03-24T03:55:25;3.53;;;1.85;;
76296;SDS011;65104;52.994;6.552;2023-03-24T03:57:51;4.13;;;1.90;;
76296;SDS011;65104;52.994;6.552;2023-03-24T04:00:19;3.42;;;2.08;;
76296;SDS011;65104;52.994;6.552;2023-03-24T04:05:46;2.67;;;1.90;;
76296;SDS011;65104;52.994;6.552;2023-03-24T04:11:18;5.07;;;2.20;;
76296;SDS011;65104;52.994;6.552;2023-03-24T04:14:51;4.78;;;2.40;;
76296;SDS011;65104;52.994;6.552;2023-03-24T04:33:05;4.28;;;1.48;;
76296;SDS011;65104;52.994;6.552;2023-03-24T04:35:44;2.47;;;1.13;;
76296;SDS011;65104;52.994;6.552;2023-03-24T04:38:20;4.95;;;1.35;;
76296;SDS011;65104;52.994;6.552;2023-03-24T04:40:52;3.30;;;1.60;;
76296;SDS011;65104;52.994;6.552;2023-03-24T04:43:20;3.83;;;1.20;;
76296;SDS011;65104;52.994;6.552;2023-03-24T04:45:50;2.03;;;1.08;;
76296;SDS011;65104;52.994;6.552;2023-03-24T04:48:22;4.00;;;1.38;;
76296;SDS011;65104;52.994;6.552;2023-03-24T04:50:51;3.65;;;1.73;;
76296;SDS011;65104;52.994;6.552;2023-03-24T04:53:19;4.43;;;1.65;;
76296;SDS011;65104;52.994;6.552;2023-03-24T04:58:13;4.32;;;1.08;;
76296;SDS011;65104;52.994;6.552;2023-03-24T05:00:39;6.88;;;1.33;;
76296;SDS011;65104;52.994;6.552;2023-03-24T05:03:05;4.88;;;1.30;;
76296;SDS011;65104;52.994;6.552;2023-03-24T05:05:32;7.07;;;1.48;;
76296;SDS011;65104;52.994;6.552;2023-03-24T05:07:57;7.03;;;2.35;;
76296;SDS011;65104;52.994;6.552;2023-03-24T05:10:24;2.92;;;2.17;;
76296;SDS011;65104;52.994;6.552;2023-03-24T05:12:49;4.93;;;1.27;;
76296;SDS011;65104;52.994;6.552;2023-03-24T05:15:15;9.57;;;2.28;;
76296;SDS011;65104;52.994;6.552;2023-03-24T05:17:40;6.10;;;1.58;;
76296;SDS011;65104;52.994;6.552;2023-03-24T05:20:06;7.63;;;1.95;;
76296;SDS011;65104;52.994;6.552;2023-03-24T05:22:35;4.57;;;2.10;;
76296;SDS011;65104;52.994;6.552;2023-03-24T05:25:01;7.20;;;2.17;;
76296;SDS011;65104;52.994;6.552;2023-03-24T05:27:27;7.10;;;1.75;;
76296;SDS011;65104;52.994;6.552;2023-03-24T05:29:53;10.00;;;2.88;;
76296;SDS011;65104;52.994;6.552;2023-03-24T05:32:18;5.53;;;2.45;;
76296;SDS011;65104;52.994;6.552;2023-03-24T05:34:44;4.63;;;2.13;;
76296;SDS011;65104;52.994;6.552;2023-03-24T05:37:09;3.67;;;1.63;;
76296;SDS011;65104;52.994;6.552;2023-03-24T05:39:37;13.32;;;2.00;;
76296;SDS011;65104;52.994;6.552;2023-03-24T05:42:02;7.18;;;2.10;;
76296;SDS011;65104;52.994;6.552;2023-03-24T05:44:28;7.80;;;2.05;;
76296;SDS011;65104;52.994;6.552;2023-03-24T05:46:53;6.57;;;2.00;;
76296;SDS011;65104;52.994;6.552;2023-03-24T05:49:18;6.55;;;1.85;;
76296;SDS011;65104;52.994;6.552;2023-03-24T05:51:43;9.38;;;2.40;;
76296;SDS011;65104;52.994;6.552;2023-03-24T05:54:09;8.48;;;1.98;;
76296;SDS011;65104;52.994;6.552;2023-03-24T05:56:34;7.65;;;1.75;;
76296;SDS011;65104;52.994;6.552;2023-03-24T05:58:59;8.48;;;2.17;;
76296;SDS011;65104;52.994;6.552;2023-03-24T06:01:25;7.35;;;1.60;;
76296;SDS011;65104;52.994;6.552;2023-03-24T06:03:52;4.88;;;1.45;;
76296;SDS011;65104;52.994;6.552;2023-03-24T06:06:18;5.45;;;1.02;;
76296;SDS011;65104;52.994;6.552;2023-03-24T06:08:43;7.40;;;1.13;;
76296;SDS011;65104;52.994;6.552;2023-03-24T06:11:09;9.98;;;2.10;;
76296;SDS011;65104;52.994;6.552;2023-03-24T06:13:35;4.28;;;1.58;;
76296;SDS011;65104;52.994;6.552;2023-03-24T06:16:01;3.90;;;1.42;;
76296;SDS011;65104;52.994;6.552;2023-03-24T06:18:27;4.72;;;1.58;;
76296;SDS011;65104;52.994;6.552;2023-03-24T06:20:54;2.67;;;0.88;;
76296;SDS011;65104;52.994;6.552;2023-03-24T06:23:24;5.82;;;1.48;;
76296;SDS011;65104;52.994;6.552;2023-03-24T06:25:51;6.40;;;1.80;;
76296;SDS011;65104;52.994;6.552;2023-03-24T06:28:17;5.60;;;2.22;;
76296;SDS011;65104;52.994;6.552;2023-03-24T06:30:43;6.13;;;0.95;;
76296;SDS011;65104;52.994;6.552;2023-03-24T06:33:10;8.25;;;2.10;;
76296;SDS011;65104;52.994;6.552;2023-03-24T06:35:36;7.88;;;1.65;;
76296;SDS011;65104;52.994;6.552;2023-03-24T06:38:02;7.75;;;2.33;;
76296;SDS011;65104;52.994;6.552;2023-03-24T06:40:28;5.63;;;1.60;;
76296;SDS011;65104;52.994;6.552;2023-03-24T06:42:54;8.88;;;1.73;;
76296;SDS011;65104;52.994;6.552;2023-03-24T06:45:20;6.93;;;1.42;;
76296;SDS011;65104;52.994;6.552;2023-03-24T06:47:45;6.00;;;1.35;;
76296;SDS011;65104;52.994;6.552;2023-03-24T06:50:10;5.70;;;1.58;;
76296;SDS011;65104;52.994;6.552;2023-03-24T06:52:36;4.20;;;1.10;;
76296;SDS011;65104;52.994;6.552;2023-03-24T06:55:01;6.68;;;1.83;;
76296;SDS011;65104;52.994;6.552;2023-03-24T06:57:27;7.93;;;1.48;;
76296;SDS011;65104;52.994;6.552;2023-03-24T06:59:53;5.10;;;1.40;;
76296;SDS011;65104;52.994;6.552;2023-03-24T07:02:19;6.57;;;2.45;;
76296;SDS011;65104;52.994;6.552;2023-03-24T07:04:44;5.15;;;1.48;;
76296;SDS011;65104;52.994;6.552;2023-03-24T07:07:10;25.58;;;7.97;;
76296;SDS011;65104;52.994;6.552;2023-03-24T07:09:36;8.63;;;2.42;;
76296;SDS011;65104;52.994;6.552;2023-03-24T07:12:04;9.98;;;1.65;;
76296;SDS011;65104;52.994;6.552;2023-03-24T07:14:30;4.47;;;1.25;;
76296;SDS011;65104;52.994;6.552;2023-03-24T07:16:55;5.70;;;1.70;;
76296;SDS011;65104;52.994;6.552;2023-03-24T07:19:21;8.10;;;1.60;;
76296;SDS011;65104;52.994;6.552;2023-03-24T07:21:46;6.53;;;2.28;;
76296;SDS011;65104;52.994;6.552;2023-03-24T07:24:14;5.28;;;1.20;;
76296;SDS011;65104;52.994;6.552;2023-03-24T07:26:42;7.90;;;2.05;;
76296;SDS011;65104;52.994;6.552;2023-03-24T07:29:08;5.65;;;2.20;;
76296;SDS011;65104;52.994;6.552;2023-03-24T07:31:34;12.43;;;2.08;;
76296;SDS011;65104;52.994;6.552;2023-03-24T07:34:02;6.72;;;1.65;;
76296;SDS011;65104;52.994;6.552;2023-03-24T07:36:28;9.85;;;1.98;;
76296;SDS011;65104;52.994;6.552;2023-03-24T07:38:53;8.80;;;1.70;;
76296;SDS011;65104;52.994;6.552;2023-03-24T07:41:19;12.07;;;2.20;;
76296;SDS011;65104;52.994;6.552;2023-03-24T07:43:44;9.73;;;2.25;;
76296;SDS011;65104;52.994;6.552;2023-03-24T07:46:09;6.53;;;2.10;;
76296;SDS011;65104;52.994;6.552;2023-03-24T07:48:35;6.72;;;1.50;;
76296;SDS011;65104;52.994;6.552;2023-03-24T07:51:00;9.18;;;1.77;;
76296;SDS011;65104;52.994;6.552;2023-03-24T07:53:26;10.95;;;2.47;;
76296;SDS011;65104;52.994;6.552;2023-03-24T07:55:51;8.35;;;2.03;;
76296;SDS011;65104;52.994;6.552;2023-03-24T07:58:16;11.32;;;1.67;;
76296;SDS011;65104;52.994;6.552;2023-03-24T08:00:43;8.88;;;2.00;;
76296;SDS011;65104;52.994;6.552;2023-03-24T08:03:10;9.30;;;2.28;;
76296;SDS011;65104;52.994;6.552;2023-03-24T08:05:38;7.60;;;2.95;;
76296;SDS011;65104;52.994;6.552;2023-03-24T08:08:04;8.02;;;2.10;;
76296;SDS011;65104;52.994;6.552;2023-03-24T08:10:30;10.40;;;1.83;;
76296;SDS011;65104;52.994;6.552;2023-03-24T08:12:56;10.77;;;2.00;;
76296;SDS011;65104;52.994;6.552;2023-03-24T08:15:23;7.65;;;2.00;;
76296;SDS011;65104;52.994;6.552;2023-03-24T08:17:49;8.40;;;1.88;;
76296;SDS011;65104;52.994;6.552;2023-03-24T08:20:16;9.43;;;1.80;;
76296;SDS011;65104;52.994;6.552;2023-03-24T08:22:44;12.18;;;1.80;;
76296;SDS011;65104;52.994;6.552;2023-03-24T08:25:13;11.07;;;1.95;;
76296;SDS011;65104;52.994;6.552;2023-03-24T08:27:40;10.75;;;1.92;;
76296;SDS011;65104;52.994;6.552;2023-03-24T08:30:08;12.15;;;2.33;;
76296;SDS011;65104;52.994;6.552;2023-03-24T08:32:42;10.60;;;2.17;;
76296;SDS011;65104;52.994;6.552;2023-03-24T08:35:10;10.60;;;1.67;;
76296;SDS011;65104;52.994;6.552;2023-03-24T08:37:38;6.53;;;1.70;;
76296;SDS011;65104;52.994;6.552;2023-03-24T08:40:04;6.00;;;2.20;;
76296;SDS011;65104;52.994;6.552;2023-03-24T08:42:30;9.88;;;2.53;;
76296;SDS011;65104;52.994;6.552;2023-03-24T08:44:55;3.95;;;1.38;;
76296;SDS011;65104;52.994;6.552;2023-03-24T08:47:21;13.75;;;2.15;;
76296;SDS011;65104;52.994;6.552;2023-03-24T08:49:46;7.68;;;1.70;;
76296;SDS011;65104;52.994;6.552;2023-03-24T08:52:11;8.60;;;1.55;;
76296;SDS011;65104;52.994;6.552;2023-03-24T08:54:37;11.13;;;2.03;;
76296;SDS011;65104;52.994;6.552;2023-03-24T08:57:02;9.80;;;2.00;;
76296;SDS011;65104;52.994;6.552;2023-03-24T08:59:28;6.10;;;1.92;;
76296;SDS011;65104;52.994;6.552;2023-03-24T09:01:53;11.23;;;2.10;;
76296;SDS011;65104;52.994;6.552;2023-03-24T09:04:18;11.05;;;1.58;;
76296;SDS011;65104;52.994;6.552;2023-03-24T09:06:44;6.10;;;2.45;;
76296;SDS011;65104;52.994;6.552;2023-03-24T09:09:09;8.63;;;1.90;;
76296;SDS011;65104;52.994;6.552;2023-03-24T09:11:35;8.77;;;1.58;;
76296;SDS011;65104;52.994;6.552;2023-03-24T09:14:00;8.25;;;1.52;;
76296;SDS011;65104;52.994;6.552;2023-03-24T09:16:25;7.47;;;1.20;;
76296;SDS011;65104;52.994;6.552;2023-03-24T09:18:51;7.63;;;2.85;;
76296;SDS011;65104;52.994;6.552;2023-03-24T09:21:16;8.77;;;2.42;;
76296;SDS011;65104;52.994;6.552;2023-03-24T09:23:41;10.55;;;1.95;;
76296;SDS011;65104;52.994;6.552;2023-03-24T09:26:07;9.80;;;1.52;;
76296;SDS011;65104;52.994;6.552;2023-03-24T09:28:33;7.95;;;1.42;;
76296;SDS011;65104;52.994;6.552;2023-03-24T09:30:59;11.75;;;2.22;;
76296;SDS011;65104;52.994;6.552;2023-03-24T09:33:27;7.97;;;1.75;;
76296;SDS011;65104;52.994;6.552;2023-03-24T09:35:57;8.75;;;1.77;;
76296;SDS011;65104;52.994;6.552;2023-03-24T09:38:24;9.05;;;1.90;;
76296;SDS011;65104;52.994;6.552;2023-03-24T09:40:52;8.95;;;1.85;;
76296;SDS011;65104;52.994;6.552;2023-03-24T09:43:39;9.45;;;2.88;;
76296;SDS011;65104;52.994;6.552;2023-03-24T09:46:08;11.02;;;2.13;;
76296;SDS011;65104;52.994;6.552;2023-03-24T09:48:46;12.65;;;2.50;;
76296;SDS011;65104;52.994;6.552;2023-03-24T09:51:21;7.38;;;2.30;;
76296;SDS011;65104;52.994;6.552;2023-03-24T09:56:21;12.30;;;1.77;;
76296;SDS011;65104;52.994;6.552;2023-03-24T09:58:49;5.30;;;1.75;;
76296;SDS011;65104;52.994;6.552;2023-03-24T10:01:23;13.63;;;2.40;;
76296;SDS011;65104;52.994;6.552;2023-03-24T10:03:48;8.50;;;2.10;;
76296;SDS011;65104;52.994;6.552;2023-03-24T10:06:22;6.13;;;1.90;;
76296;SDS011;65104;52.994;6.552;2023-03-24T10:08:55;10.60;;;2.58;;
76296;SDS011;65104;52.994;6.552;2023-03-24T10:11:51;8.30;;;1.80;;
76296;SDS011;65104;52.994;6.552;2023-03-24T10:19:51;7.85;;;1.90;;
76296;SDS011;65104;52.994;6.552;2023-03-24T10:22:29;8.18;;;2.00;;
76296;SDS011;65104;52.994;6.552;2023-03-24T10:25:17;9.25;;;1.70;;
76296;SDS011;65104;52.994;6.552;2023-03-24T10:30:34;7.93;;;1.73;;
76296;SDS011;65104;52.994;6.552;2023-03-24T10:33:04;8.35;;;2.33;;
76296;SDS011;65104;52.994;6.552;2023-03-24T10:35:34;10.38;;;2.25;;
76296;SDS011;65104;52.994;6.552;2023-03-24T10:38:02;9.63;;;2.58;;
76296;SDS011;65104;52.994;6.552;2023-03-24T10:40:42;7.00;;;2.20;;
76296;SDS011;65104;52.994;6.552;2023-03-24T10:43:09;8.57;;;3.20;;
76296;SDS011;65104;52.994;6.552;2023-03-24T10:45:37;5.88;;;1.75;;
76296;SDS011;65104;52.994;6.552;2023-03-24T10:48:04;4.90;;;1.80;;
76296;SDS011;65104;52.994;6.552;2023-03-24T10:50:31;8.57;;;2.03;;
76296;SDS011;65104;52.994;6.552;2023-03-24T10:52:59;8.82;;;1.70;;
76296;SDS011;65104;52.994;6.552;2023-03-24T10:55:36;8.02;;;2.70;;
76296;SDS011;65104;52.994;6.552;2023-03-24T10:58:03;9.13;;;1.50;;
76296;SDS011;65104;52.994;6.552;2023-03-24T11:00:57;3.28;;;1.55;;
76296;SDS011;65104;52.994;6.552;2023-03-24T11:03:30;6.28;;;1.60;;
76296;SDS011;65104;52.994;6.552;2023-03-24T11:05:59;8.00;;;2.30;;
76296;SDS011;65104;52.994;6.552;2023-03-24T11:08:34;6.10;;;1.88;;
76296;SDS011;65104;52.994;6.552;2023-03-24T11:11:26;7.40;;;1.70;;
76296;SDS011;65104;52.994;6.552;2023-03-24T11:13:54;6.57;;;1.73;;
76296;SDS011;65104;52.994;6.552;2023-03-24T11:16:25;2.55;;;1.13;;
76296;SDS011;65104;52.994;6.552;2023-03-24T11:18:57;8.55;;;2.25;;
76296;SDS011;65104;52.994;6.552;2023-03-24T11:21:27;7.25;;;1.83;;
76296;SDS011;65104;52.994;6.552;2023-03-24T11:26:22;7.13;;;1.40;;
76296;SDS011;65104;52.994;6.552;2023-03-24T11:28:56;5.65;;;1.20;;
76296;SDS011;65104;52.994;6.552;2023-03-24T11:31:31;4.97;;;1.65;;
76296;SDS011;65104;52.994;6.552;2023-03-24T11:36:38;6.57;;;1.27;;
76296;SDS011;65104;52.994;6.552;2023-03-24T11:39:19;5.50;;;1.00;;
76296;SDS011;65104;52.994;6.552;2023-03-24T11:41:50;10.15;;;1.73;;
76296;SDS011;65104;52.994;6.552;2023-03-24T11:44:51;4.28;;;1.20;;
76296;SDS011;65104;52.994;6.552;2023-03-24T11:47:29;6.50;;;1.50;;
76296;SDS011;65104;52.994;6.552;2023-03-24T11:52:35;8.13;;;1.90;;
76296;SDS011;65104;52.994;6.552;2023-03-24T11:55:12;4.00;;;1.25;;
76296;SDS011;65104;52.994;6.552;2023-03-24T12:00:24;8.88;;;1.63;;
76296;SDS011;65104;52.994;6.552;2023-03-24T12:06:57;7.28;;;1.40;;
76296;SDS011;65104;52.994;6.552;2023-03-24T12:09:21;7.28;;;1.48;;
76296;SDS011;65104;52.994;6.552;2023-03-24T12:11:50;6.63;;;1.60;;
76296;SDS011;65104;52.994;6.552;2023-03-24T12:14:31;5.22;;;1.55;;
76296;SDS011;65104;52.994;6.552;2023-03-24T12:17:15;6.90;;;1.42;;
76296;SDS011;65104;52.994;6.552;2023-03-24T12:28:12;6.38;;;1.30;;
76296;SDS011;65104;52.994;6.552;2023-03-24T12:31:00;4.60;;;1.83;;
76296;SDS011;65104;52.994;6.552;2023-03-24T12:39:09;6.18;;;1.80;;
76296;SDS011;65104;52.994;6.552;2023-03-24T12:47:16;4.72;;;1.63;;
76296;SDS011;65104;52.994;6.552;2023-03-24T12:52:28;4.32;;;1.52;;
76296;SDS011;65104;52.994;6.552;2023-03-24T12:57:28;3.38;;;1.15;;
76296;SDS011;65104;52.994;6.552;2023-03-24T13:00:21;4.82;;;1.65;;
76296;SDS011;65104;52.994;6.552;2023-03-24T13:05:39;5.55;;;1.48;;
76296;SDS011;65104;52.994;6.552;2023-03-24T13:10:40;4.70;;;1.25;;
76296;SDS011;65104;52.994;6.552;2023-03-24T13:13:18;3.97;;;1.38;;
76296;SDS011;65104;52.994;6.552;2023-03-24T13:15:47;5.45;;;1.50;;
76296;SDS011;65104;52.994;6.552;2023-03-24T13:24:10;7.25;;;1.48;;
76296;SDS011;65104;52.994;6.552;2023-03-24T13:34:23;8.27;;;1.60;;
76296;SDS011;65104;52.994;6.552;2023-03-24T13:37:02;5.38;;;1.75;;
76296;SDS011;65104;52.994;6.552;2023-03-24T13:39:32;7.60;;;2.13;;
76296;SDS011;65104;52.994;6.552;2023-03-24T13:41:59;4.68;;;1.25;;
76296;SDS011;65104;52.994;6.552;2023-03-24T13:44:34;6.95;;;1.58;;
76296;SDS011;65104;52.994;6.552;2023-03-24T13:47:16;6.22;;;1.45;;
76296;SDS011;65104;52.994;6.552;2023-03-24T13:52:45;4.38;;;1.00;;
76296;SDS011;65104;52.994;6.552;2023-03-24T13:55:14;6.82;;;1.40;;
76296;SDS011;65104;52.994;6.552;2023-03-24T13:57:55;4.20;;;1.42;;
76296;SDS011;65104;52.994;6.552;2023-03-24T14:02:52;5.25;;;1.45;;
76296;SDS011;65104;52.994;6.552;2023-03-24T14:07:54;7.78;;;1.40;;
76296;SDS011;65104;52.994;6.552;2023-03-24T14:10:39;5.93;;;1.50;;
76296;SDS011;65104;52.994;6.552;2023-03-24T14:21:04;8.75;;;1.52;;
76296;SDS011;65104;52.994;6.552;2023-03-24T14:26:01;9.30;;;1.83;;
76296;SDS011;65104;52.994;6.552;2023-03-24T14:34:27;8.75;;;1.52;;
76296;SDS011;65104;52.994;6.552;2023-03-24T14:36:38;4.68;;;1.60;;
76296;SDS011;65104;52.994;6.552;2023-03-24T14:39:48;6.22;;;1.48;;
76296;SDS011;65104;52.994;6.552;2023-03-24T14:41:54;3.92;;;1.27;;
76296;SDS011;65104;52.994;6.552;2023-03-24T14:47:15;5.20;;;1.90;;
76296;SDS011;65104;52.994;6.552;2023-03-24T14:49:44;4.50;;;0.90;;
76296;SDS011;65104;52.994;6.552;2023-03-24T14:54:57;2.78;;;0.70;;
76296;SDS011;65104;52.994;6.552;2023-03-24T14:57:25;3.72;;;0.70;;
76296;SDS011;65104;52.994;6.552;2023-03-24T15:03:00;4.80;;;1.35;;
76296;SDS011;65104;52.994;6.552;2023-03-24T15:05:34;4.75;;;0.90;;
76296;SDS011;65104;52.994;6.552;2023-03-24T15:08:12;2.53;;;0.90;;
76296;SDS011;65104;52.994;6.552;2023-03-24T15:18:34;2.15;;;0.80;;
76296;SDS011;65104;52.994;6.552;2023-03-24T15:21:21;5.18;;;1.10;;
76296;SDS011;65104;52.994;6.552;2023-03-24T15:23:50;3.05;;;1.25;;
76296;SDS011;65104;52.994;6.552;2023-03-24T15:26:17;6.32;;;1.02;;
76296;SDS011;65104;52.994;6.552;2023-03-24T15:28:46;5.38;;;1.15;;
76296;SDS011;65104;52.994;6.552;2023-03-24T15:31:18;4.72;;;1.23;;
76296;SDS011;65104;52.994;6.552;2023-03-24T15:33:46;2.47;;;1.00;;
76296;SDS011;65104;52.994;6.552;2023-03-24T15:36:12;4.80;;;1.40;;
76296;SDS011;65104;52.994;6.552;2023-03-24T15:38:46;6.53;;;1.30;;
76296;SDS011;65104;52.994;6.552;2023-03-24T15:41:15;6.70;;;1.08;;
76296;SDS011;65104;52.994;6.552;2023-03-24T15:43:43;6.93;;;1.45;;
76296;SDS011;65104;52.994;6.552;2023-03-24T15:46:21;4.75;;;1.50;;
76296;SDS011;65104;52.994;6.552;2023-03-24T15:48:51;6.90;;;1.85;;
76296;SDS011;65104;52.994;6.552;2023-03-24T15:51:18;7.57;;;1.38;;
76296;SDS011;65104;52.994;6.552;2023-03-24T15:53:44;6.30;;;1.35;;
76296;SDS011;65104;52.994;6.552;2023-03-24T15:56:29;6.57;;;1.70;;
76296;SDS011;65104;52.994;6.552;2023-03-24T16:01:29;7.13;;;1.55;;
76296;SDS011;65104;52.994;6.552;2023-03-24T16:04:00;4.40;;;1.27;;
76296;SDS011;65104;52.994;6.552;2023-03-24T16:06:31;8.02;;;2.97;;
76296;SDS011;65104;52.994;6.552;2023-03-24T16:09:12;5.95;;;1.75;;
76296;SDS011;65104;52.994;6.552;2023-03-24T16:14:38;5.30;;;1.25;;
76296;SDS011;65104;52.994;6.552;2023-03-24T16:16:58;6.57;;;1.20;;
76296;SDS011;65104;52.994;6.552;2023-03-24T16:19:27;4.30;;;1.08;;
76296;SDS011;65104;52.994;6.552;2023-03-24T16:21:52;7.47;;;1.50;;
76296;SDS011;65104;52.994;6.552;2023-03-24T16:24:18;3.97;;;1.20;;
76296;SDS011;65104;52.994;6.552;2023-03-24T16:26:44;4.28;;;1.10;;
76296;SDS011;65104;52.994;6.552;2023-03-24T16:29:14;4.57;;;1.23;;
76296;SDS011;65104;52.994;6.552;2023-03-24T16:31:42;4.25;;;0.85;;
76296;SDS011;65104;52.994;6.552;2023-03-24T16:34:09;4.25;;;1.23;;
76296;SDS011;65104;52.994;6.552;2023-03-24T16:37:08;4.35;;;2.17;;
76296;SDS011;65104;52.994;6.552;2023-03-24T16:39:34;4.70;;;0.98;;
76296;SDS011;65104;52.994;6.552;2023-03-24T16:41:59;3.15;;;1.00;;
76296;SDS011;65104;52.994;6.552;2023-03-24T16:44:25;4.75;;;1.05;;
76296;SDS011;65104;52.994;6.552;2023-03-24T16:46:51;4.50;;;1.05;;
76296;SDS011;65104;52.994;6.552;2023-03-24T16:49:18;2.53;;;0.70;;
76296;SDS011;65104;52.994;6.552;2023-03-24T16:51:44;2.53;;;0.85;;
76296;SDS011;65104;52.994;6.552;2023-03-24T16:54:10;6.47;;;1.10;;
76296;SDS011;65104;52.994;6.552;2023-03-24T16:56:36;3.67;;;1.25;;
76296;SDS011;65104;52.994;6.552;2023-03-24T16:59:02;4.50;;;1.17;;
76296;SDS011;65104;52.994;6.552;2023-03-24T17:01:29;4.72;;;1.40;;
76296;SDS011;65104;52.994;6.552;2023-03-24T17:04:06;3.47;;;1.00;;
76296;SDS011;65104;52.994;6.552;2023-03-24T17:06:33;7.10;;;1.60;;
76296;SDS011;65104;52.994;6.552;2023-03-24T17:09:00;5.30;;;1.17;;
76296;SDS011;65104;52.994;6.552;2023-03-24T17:11:32;5.97;;;0.95;;
76296;SDS011;65104;52.994;6.552;2023-03-24T17:14:00;3.40;;;1.02;;
76296;SDS011;65104;52.994;6.552;2023-03-24T17:16:29;7.55;;;1.23;;
76296;SDS011;65104;52.994;6.552;2023-03-24T17:21:21;3.83;;;1.30;;
76296;SDS011;65104;52.994;6.552;2023-03-24T17:23:47;5.32;;;1.35;;
76296;SDS011;65104;52.994;6.552;2023-03-24T17:26:14;3.03;;;1.38;;
76296;SDS011;65104;52.994;6.552;2023-03-24T17:28:40;2.50;;;1.00;;
76296;SDS011;65104;52.994;6.552;2023-03-24T17:31:07;9.05;;;1.95;;
76296;SDS011;65104;52.994;6.552;2023-03-24T17:33:32;6.13;;;1.23;;
76296;SDS011;65104;52.994;6.552;2023-03-24T17:35:58;6.68;;;1.30;;
76296;SDS011;65104;52.994;6.552;2023-03-24T17:38:23;7.35;;;3.15;;
76296;SDS011;65104;52.994;6.552;2023-03-24T17:40:57;5.97;;;1.30;;
76296;SDS011;65104;52.994;6.552;2023-03-24T17:43:24;3.05;;;0.93;;
76296;SDS011;65104;52.994;6.552;2023-03-24T17:45:51;5.35;;;2.17;;
76296;SDS011;65104;52.994;6.552;2023-03-24T17:48:20;8.45;;;1.67;;
76296;SDS011;65104;52.994;6.552;2023-03-24T17:50:45;5.03;;;2.30;;
76296;SDS011;65104;52.994;6.552;2023-03-24T17:53:12;8.10;;;3.67;;
76296;SDS011;65104;52.994;6.552;2023-03-24T17:55:39;5.60;;;1.17;;
76296;SDS011;65104;52.994;6.552;2023-03-24T17:58:05;6.45;;;2.00;;
76296;SDS011;65104;52.994;6.552;2023-03-24T18:00:31;11.63;;;5.80;;
76296;SDS011;65104;52.994;6.552;2023-03-24T18:02:59;6.55;;;1.88;;
76296;SDS011;65104;52.994;6.552;2023-03-24T18:05:24;8.32;;;2.38;;
76296;SDS011;65104;52.994;6.552;2023-03-24T18:07:50;5.20;;;1.42;;
76296;SDS011;65104;52.994;6.552;2023-03-24T18:10:15;7.75;;;2.22;;
76296;SDS011;65104;52.994;6.552;2023-03-24T18:12:41;4.53;;;1.98;;
76296;SDS011;65104;52.994;6.552;2023-03-24T18:15:06;5.80;;;1.50;;
76296;SDS011;65104;52.994;6.552;2023-03-24T18:17:32;6.72;;;2.10;;